sensor_id;sensor_type;location;lat;lon;timestamp;temperature;humidity
65752;DHT22;52486;51.098;13.770;2024-02-14T00:00:01;23.40;62.70
65752;DHT22;52486;51.098;13.770;2024-02-14T00:02:27;22.50;62.70
65752;DHT22;52486;51.098;13.770;2024-02-14T00:04:53;22.70;62.30
65752;DHT22;52486;51.098;13.770;2024-02-14T00:07:19;22.40;61.80
65752;DHT22;52486;51.098;13.770;2024-02-14T00:09:45;22.50;62.00
65752;DHT22;52486;51.098;13.770;2024-02-14T00:12:11;22.30;61.20
65752;DHT22;52486;51.098;13.770;2024-02-14T00:14:37;22.60;61.80
65752;DHT22;52486;51.098;13.770;2024-02-14T00:17:03;22.60;61.80
65752;DHT22;52486;51.098;13.770;2024-02-14T00:19:29;22.70;61.80
65752;DHT22;52486;51.098;13.770;2024-02-14T00:21:54;22.80;61.90
65752;DHT22;52486;51.098;13.770;2024-02-14T00:24:20;22.80;62.00
65752;DHT22;52486;51.098;13.770;2024-02-14T00:26:45;22.90;62.00
65752;DHT22;52486;51.098;13.770;2024-02-14T00:29:11;22.80;61.80
65752;DHT22;52486;51.098;13.770;2024-02-14T00:31:37;23.00;62.00
65752;DHT22;52486;51.098;13.770;2024-02-14T00:34:02;22.90;62.00
65752;DHT22;52486;51.098;13.770;2024-02-14T00:36:28;22.80;61.10
65752;DHT22;52486;51.098;13.770;2024-02-14T00:38:53;22.80;61.80
65752;DHT22;52486;51.098;13.770;2024-02-14T00:41:19;22.80;61.80
65752;DHT22;52486;51.098;13.770;2024-02-14T00:43:45;24.00;62.30
65752;DHT22;52486;51.098;13.770;2024-02-14T00:46:15;22.80;61.60
65752;DHT22;52486;51.098;13.770;2024-02-14T00:48:40;23.10;61.80
65752;DHT22;52486;51.098;13.770;2024-02-14T00:51:06;22.80;61.60
65752;DHT22;52486;51.098;13.770;2024-02-14T00:53:32;22.80;61.50
65752;DHT22;52486;51.098;13.770;2024-02-14T00:55:57;23.10;61.90
65752;DHT22;52486;51.098;13.770;2024-02-14T00:58:23;22.80;61.70
65752;DHT22;52486;51.098;13.770;2024-02-14T01:00:48;23.00;61.80
65752;DHT22;52486;51.098;13.770;2024-02-14T01:03:14;25.30;63.00
65752;DHT22;52486;51.098;13.770;2024-02-14T01:05:41;22.80;61.60
65752;DHT22;52486;51.098;13.770;2024-02-14T01:08:07;23.00;61.70
65752;DHT22;52486;51.098;13.770;2024-02-14T01:10:33;22.90;61.80
65752;DHT22;52486;51.098;13.770;2024-02-14T01:12:58;22.90;61.80
65752;DHT22;52486;51.098;13.770;2024-02-14T01:15:24;22.80;61.00
65752;DHT22;52486;51.098;13.770;2024-02-14T01:17:49;23.10;61.80
65752;DHT22;52486;51.098;13.770;2024-02-14T01:20:15;22.80;61.70
65752;DHT22;52486;51.098;13.770;2024-02-14T01:22:41;23.00;61.70
65752;DHT22;52486;51.098;13.770;2024-02-14T01:25:06;22.80;60.90
65752;DHT22;52486;51.098;13.770;2024-02-14T01:27:32;23.00;61.20
65752;DHT22;52486;51.098;13.770;2024-02-14T01:29:58;22.90;61.60
65752;DHT22;52486;51.098;13.770;2024-02-14T01:32:23;23.10;61.80
65752;DHT22;52486;51.098;13.770;2024-02-14T01:34:49;22.90;61.60
65752;DHT22;52486;51.098;13.770;2024-02-14T01:37:14;23.20;61.80
65752;DHT22;52486;51.098;13.770;2024-02-14T01:39:40;23.30;61.50
65752;DHT22;52486;51.098;13.770;2024-02-14T01:42:05;22.90;61.40
65752;DHT22;52486;51.098;13.770;2024-02-14T01:44:33;23.00;61.50
65752;DHT22;52486;51.098;13.770;2024-02-14T01:46:59;23.00;61.60
65752;DHT22;52486;51.098;13.770;2024-02-14T01:49:25;23.70;62.00
65752;DHT22;52486;51.098;13.770;2024-02-14T01:51:53;23.00;61.00
65752;DHT22;52486;51.098;13.770;2024-02-14T01:54:20;23.00;61.70
65752;DHT22;52486;51.098;13.770;2024-02-14T01:56:47;22.90;61.50
65752;DHT22;52486;51.098;13.770;2024-02-14T01:59:13;25.80;63.20
65752;DHT22;52486;51.098;13.770;2024-02-14T02:01:38;23.40;61.80
65752;DHT22;52486;51.098;13.770;2024-02-14T02:04:04;22.90;61.40
65752;DHT22;52486;51.098;13.770;2024-02-14T02:06:30;23.10;61.70
65752;DHT22;52486;51.098;13.770;2024-02-14T02:08:55;23.20;61.90
65752;DHT22;52486;51.098;13.770;2024-02-14T02:11:22;23.10;61.60
65752;DHT22;52486;51.098;13.770;2024-02-14T02:13:47;23.20;61.80
65752;DHT22;52486;51.098;13.770;2024-02-14T02:16:13;23.00;61.00
65752;DHT22;52486;51.098;13.770;2024-02-14T02:18:40;23.20;61.60
65752;DHT22;52486;51.098;13.770;2024-02-14T02:21:05;23.10;61.80
65752;DHT22;52486;51.098;13.770;2024-02-14T02:23:34;23.10;61.60
65752;DHT22;52486;51.098;13.770;2024-02-14T02:26:01;23.30;59.50
65752;DHT22;52486;51.098;13.770;2024-02-14T02:28:26;23.10;61.60
65752;DHT22;52486;51.098;13.770;2024-02-14T02:30:52;23.20;61.80
65752;DHT22;52486;51.098;13.770;2024-02-14T02:33:18;23.20;61.60
65752;DHT22;52486;51.098;13.770;2024-02-14T02:35:44;23.10;61.80
65752;DHT22;52486;51.098;13.770;2024-02-14T02:38:11;23.30;61.70
65752;DHT22;52486;51.098;13.770;2024-02-14T02:40:36;23.10;61.70
65752;DHT22;52486;51.098;13.770;2024-02-14T02:43:02;23.00;61.50
65752;DHT22;52486;51.098;13.770;2024-02-14T02:45:28;23.10;61.50
65752;DHT22;52486;51.098;13.770;2024-02-14T02:47:54;23.70;62.00
65752;DHT22;52486;51.098;13.770;2024-02-14T02:50:20;23.00;61.40
65752;DHT22;52486;51.098;13.770;2024-02-14T02:52:47;23.10;61.40
65752;DHT22;52486;51.098;13.770;2024-02-14T02:55:12;23.30;61.70
65752;DHT22;52486;51.098;13.770;2024-02-14T02:57:40;23.30;61.60
65752;DHT22;52486;51.098;13.770;2024-02-14T03:00:06;23.40;61.70
65752;DHT22;52486;51.098;13.770;2024-02-14T03:02:33;23.20;60.70
65752;DHT22;52486;51.098;13.770;2024-02-14T03:04:59;23.00;61.30
65752;DHT22;52486;51.098;13.770;2024-02-14T03:07:25;23.30;61.50
65752;DHT22;52486;51.098;13.770;2024-02-14T03:09:51;23.30;61.50
65752;DHT22;52486;51.098;13.770;2024-02-14T03:12:17;23.60;61.90
65752;DHT22;52486;51.098;13.770;2024-02-14T03:14:44;23.30;61.50
65752;DHT22;52486;51.098;13.770;2024-02-14T03:17:09;23.10;61.60
65752;DHT22;52486;51.098;13.770;2024-02-14T03:19:35;23.20;61.60
65752;DHT22;52486;51.098;13.770;2024-02-14T03:22:04;23.00;60.60
65752;DHT22;52486;51.098;13.770;2024-02-14T03:24:31;22.90;61.20
65752;DHT22;52486;51.098;13.770;2024-02-14T03:26:56;23.40;61.70
65752;DHT22;52486;51.098;13.770;2024-02-14T03:29:22;23.20;60.90
65752;DHT22;52486;51.098;13.770;2024-02-14T03:31:47;23.20;61.70
65752;DHT22;52486;51.098;13.770;2024-02-14T03:34:13;23.20;61.00
65752;DHT22;52486;51.098;13.770;2024-02-14T03:36:39;23.20;61.40
65752;DHT22;52486;51.098;13.770;2024-02-14T03:39:05;23.20;61.60
65752;DHT22;52486;51.098;13.770;2024-02-14T03:41:30;23.20;61.60
65752;DHT22;52486;51.098;13.770;2024-02-14T03:43:56;23.20;61.40
65752;DHT22;52486;51.098;13.770;2024-02-14T03:46:26;23.20;61.40
65752;DHT22;52486;51.098;13.770;2024-02-14T03:48:52;23.90;61.90
65752;DHT22;52486;51.098;13.770;2024-02-14T03:51:18;23.30;61.50
65752;DHT22;52486;51.098;13.770;2024-02-14T03:53:45;23.20;60.90
65752;DHT22;52486;51.098;13.770;2024-02-14T03:56:12;23.60;60.60
65752;DHT22;52486;51.098;13.770;2024-02-14T03:58:41;23.30;61.50
65752;DHT22;52486;51.098;13.770;2024-02-14T04:01:07;23.20;61.50
65752;DHT22;52486;51.098;13.770;2024-02-14T04:03:32;26.10;63.50
65752;DHT22;52486;51.098;13.770;2024-02-14T04:05:58;23.30;61.60
65752;DHT22;52486;51.098;13.770;2024-02-14T04:08:24;26.10;63.40
65752;DHT22;52486;51.098;13.770;2024-02-14T04:10:49;23.10;61.60
65752;DHT22;52486;51.098;13.770;2024-02-14T04:13:16;23.10;61.40
65752;DHT22;52486;51.098;13.770;2024-02-14T04:15:41;23.30;61.50
65752;DHT22;52486;51.098;13.770;2024-02-14T04:18:10;23.40;61.50
65752;DHT22;52486;51.098;13.770;2024-02-14T04:20:35;23.20;61.60
65752;DHT22;52486;51.098;13.770;2024-02-14T04:23:01;23.20;61.60
65752;DHT22;52486;51.098;13.770;2024-02-14T04:25:26;23.50;61.10
65752;DHT22;52486;51.098;13.770;2024-02-14T04:27:52;23.30;61.50
65752;DHT22;52486;51.098;13.770;2024-02-14T04:30:17;23.30;61.70
65752;DHT22;52486;51.098;13.770;2024-02-14T04:32:43;23.50;61.70
65752;DHT22;52486;51.098;13.770;2024-02-14T04:35:11;23.30;61.30
65752;DHT22;52486;51.098;13.770;2024-02-14T04:37:36;23.30;61.60
65752;DHT22;52486;51.098;13.770;2024-02-14T04:40:02;23.20;61.60
65752;DHT22;52486;51.098;13.770;2024-02-14T04:42:29;23.30;61.10
65752;DHT22;52486;51.098;13.770;2024-02-14T04:44:55;23.10;61.00
65752;DHT22;52486;51.098;13.770;2024-02-14T04:47:20;23.30;61.70
65752;DHT22;52486;51.098;13.770;2024-02-14T04:49:46;23.20;61.40
65752;DHT22;52486;51.098;13.770;2024-02-14T04:52:12;23.20;61.70
65752;DHT22;52486;51.098;13.770;2024-02-14T04:54:37;23.30;61.70
65752;DHT22;52486;51.098;13.770;2024-02-14T04:57:03;23.00;61.50
65752;DHT22;52486;51.098;13.770;2024-02-14T04:59:30;23.40;61.60
65752;DHT22;52486;51.098;13.770;2024-02-14T05:01:55;23.50;61.60
65752;DHT22;52486;51.098;13.770;2024-02-14T05:04:21;23.20;61.40
65752;DHT22;52486;51.098;13.770;2024-02-14T05:06:48;23.30;61.50
65752;DHT22;52486;51.098;13.770;2024-02-14T05:09:13;23.50;61.70
65752;DHT22;52486;51.098;13.770;2024-02-14T05:11:40;23.60;61.60
65752;DHT22;52486;51.098;13.770;2024-02-14T05:14:05;23.20;61.60
65752;DHT22;52486;51.098;13.770;2024-02-14T05:16:31;23.20;61.70
65752;DHT22;52486;51.098;13.770;2024-02-14T05:18:56;23.50;61.80
65752;DHT22;52486;51.098;13.770;2024-02-14T05:21:22;23.40;61.80
65752;DHT22;52486;51.098;13.770;2024-02-14T05:23:48;23.50;61.70
65752;DHT22;52486;51.098;13.770;2024-02-14T05:26:13;23.30;61.70
65752;DHT22;52486;51.098;13.770;2024-02-14T05:28:39;23.30;61.70
65752;DHT22;52486;51.098;13.770;2024-02-14T05:31:04;23.60;61.90
65752;DHT22;52486;51.098;13.770;2024-02-14T05:33:30;23.40;61.60
65752;DHT22;52486;51.098;13.770;2024-02-14T05:35:56;23.60;61.70
65752;DHT22;52486;51.098;13.770;2024-02-14T05:38:21;23.30;61.80
65752;DHT22;52486;51.098;13.770;2024-02-14T05:40:47;25.40;62.90
65752;DHT22;52486;51.098;13.770;2024-02-14T05:43:13;23.50;61.60
65752;DHT22;52486;51.098;13.770;2024-02-14T05:45:38;23.60;61.90
65752;DHT22;52486;51.098;13.770;2024-02-14T05:48:04;23.30;61.00
65752;DHT22;52486;51.098;13.770;2024-02-14T05:50:30;23.40;61.30
65752;DHT22;52486;51.098;13.770;2024-02-14T05:52:55;23.50;61.70
65752;DHT22;52486;51.098;13.770;2024-02-14T05:55:23;23.60;61.50
65752;DHT22;52486;51.098;13.770;2024-02-14T05:57:48;23.20;61.60
65752;DHT22;52486;51.098;13.770;2024-02-14T06:00:14;23.40;61.90
65752;DHT22;52486;51.098;13.770;2024-02-14T06:02:39;23.40;61.30
65752;DHT22;52486;51.098;13.770;2024-02-14T06:05:05;23.70;61.80
65752;DHT22;52486;51.098;13.770;2024-02-14T06:07:35;23.20;60.60
65752;DHT22;52486;51.098;13.770;2024-02-14T06:10:01;24.50;57.40
65752;DHT22;52486;51.098;13.770;2024-02-14T06:12:26;23.80;56.30
65752;DHT22;52486;51.098;13.770;2024-02-14T06:14:52;22.60;55.80
65752;DHT22;52486;51.098;13.770;2024-02-14T06:17:17;23.20;56.20
65752;DHT22;52486;51.098;13.770;2024-02-14T06:19:43;22.50;56.20
65752;DHT22;52486;51.098;13.770;2024-02-14T06:22:08;22.20;56.80
65752;DHT22;52486;51.098;13.770;2024-02-14T06:24:34;22.10;56.50
65752;DHT22;52486;51.098;13.770;2024-02-14T06:27:00;22.30;56.90
65752;DHT22;52486;51.098;13.770;2024-02-14T06:29:25;21.80;56.10
65752;DHT22;52486;51.098;13.770;2024-02-14T06:31:51;21.80;57.10
65752;DHT22;52486;51.098;13.770;2024-02-14T06:34:16;21.40;56.20
65752;DHT22;52486;51.098;13.770;2024-02-14T06:36:42;21.50;56.90
65752;DHT22;52486;51.098;13.770;2024-02-14T06:39:07;21.60;57.70
65752;DHT22;52486;51.098;13.770;2024-02-14T06:41:33;23.00;57.70
65752;DHT22;52486;51.098;13.770;2024-02-14T06:43:59;21.40;57.20
65752;DHT22;52486;51.098;13.770;2024-02-14T06:46:24;21.40;56.40
65752;DHT22;52486;51.098;13.770;2024-02-14T06:48:50;22.40;57.80
65752;DHT22;52486;51.098;13.770;2024-02-14T06:51:15;22.40;58.00
65752;DHT22;52486;51.098;13.770;2024-02-14T06:53:41;21.00;57.20
65752;DHT22;52486;51.098;13.770;2024-02-14T06:56:07;21.20;58.20
65752;DHT22;52486;51.098;13.770;2024-02-14T06:58:32;24.10;59.50
65752;DHT22;52486;51.098;13.770;2024-02-14T07:00:57;21.00;58.00
65752;DHT22;52486;51.098;13.770;2024-02-14T07:03:23;22.30;58.60
65752;DHT22;52486;51.098;13.770;2024-02-14T07:05:48;20.80;57.70
65752;DHT22;52486;51.098;13.770;2024-02-14T07:08:14;20.70;58.10
65752;DHT22;52486;51.098;13.770;2024-02-14T07:10:40;20.50;58.00
65752;DHT22;52486;51.098;13.770;2024-02-14T07:13:05;19.80;57.70
65752;DHT22;52486;51.098;13.770;2024-02-14T07:15:31;18.90;59.50
65752;DHT22;52486;51.098;13.770;2024-02-14T07:17:56;18.80;61.30
65752;DHT22;52486;51.098;13.770;2024-02-14T07:20:23;18.40;61.30
65752;DHT22;52486;51.098;13.770;2024-02-14T07:22:51;19.80;63.60
65752;DHT22;52486;51.098;13.770;2024-02-14T07:25:19;20.90;64.10
65752;DHT22;52486;51.098;13.770;2024-02-14T07:27:44;18.40;63.40
65752;DHT22;52486;51.098;13.770;2024-02-14T07:30:11;18.50;63.00
65752;DHT22;52486;51.098;13.770;2024-02-14T07:32:37;18.40;62.00
65752;DHT22;52486;51.098;13.770;2024-02-14T07:35:03;18.50;61.50
65752;DHT22;52486;51.098;13.770;2024-02-14T07:37:30;18.80;60.40
65752;DHT22;52486;51.098;13.770;2024-02-14T07:39:56;21.50;62.40
65752;DHT22;52486;51.098;13.770;2024-02-14T07:42:21;18.90;60.00
65752;DHT22;52486;51.098;13.770;2024-02-14T07:44:47;19.90;61.00
65752;DHT22;52486;51.098;13.770;2024-02-14T07:47:13;21.80;61.10
65752;DHT22;52486;51.098;13.770;2024-02-14T07:49:39;19.10;59.90
65752;DHT22;52486;51.098;13.770;2024-02-14T07:52:04;20.50;60.00
65752;DHT22;52486;51.098;13.770;2024-02-14T07:54:30;19.40;58.60
65752;DHT22;52486;51.098;13.770;2024-02-14T07:56:56;19.40;59.40
65752;DHT22;52486;51.098;13.770;2024-02-14T07:59:21;19.10;58.40
65752;DHT22;52486;51.098;13.770;2024-02-14T08:01:47;19.20;58.50
65752;DHT22;52486;51.098;13.770;2024-02-14T08:04:12;20.00;59.90
65752;DHT22;52486;51.098;13.770;2024-02-14T08:06:38;20.30;62.20
65752;DHT22;52486;51.098;13.770;2024-02-14T08:09:03;19.60;63.00
65752;DHT22;52486;51.098;13.770;2024-02-14T08:11:32;19.50;63.40
65752;DHT22;52486;51.098;13.770;2024-02-14T08:13:57;20.10;63.70
65752;DHT22;52486;51.098;13.770;2024-02-14T08:16:23;23.20;65.60
65752;DHT22;52486;51.098;13.770;2024-02-14T08:18:49;20.80;64.20
65752;DHT22;52486;51.098;13.770;2024-02-14T08:21:16;20.80;64.60
65752;DHT22;52486;51.098;13.770;2024-02-14T08:23:41;20.60;64.10
65752;DHT22;52486;51.098;13.770;2024-02-14T08:26:08;23.60;65.40
65752;DHT22;52486;51.098;13.770;2024-02-14T08:28:38;21.20;63.80
65752;DHT22;52486;51.098;13.770;2024-02-14T08:31:13;22.20;63.90
65752;DHT22;52486;51.098;13.770;2024-02-14T08:33:38;21.40;63.10
65752;DHT22;52486;51.098;13.770;2024-02-14T08:36:04;21.50;63.10
65752;DHT22;52486;51.098;13.770;2024-02-14T08:38:30;21.60;62.40
65752;DHT22;52486;51.098;13.770;2024-02-14T08:40:55;21.80;62.20
65752;DHT22;52486;51.098;13.770;2024-02-14T08:43:22;21.80;62.10
65752;DHT22;52486;51.098;13.770;2024-02-14T08:45:47;22.00;62.70
65752;DHT22;52486;51.098;13.770;2024-02-14T08:48:13;22.10;62.50
65752;DHT22;52486;51.098;13.770;2024-02-14T08:50:39;22.30;62.20
65752;DHT22;52486;51.098;13.770;2024-02-14T08:53:04;22.20;62.10
65752;DHT22;52486;51.098;13.770;2024-02-14T08:55:30;22.30;62.40
65752;DHT22;52486;51.098;13.770;2024-02-14T08:57:58;23.50;62.70
65752;DHT22;52486;51.098;13.770;2024-02-14T09:00:24;22.60;62.20
65752;DHT22;52486;51.098;13.770;2024-02-14T09:02:49;22.50;61.90
65752;DHT22;52486;51.098;13.770;2024-02-14T09:05:15;22.40;61.70
65752;DHT22;52486;51.098;13.770;2024-02-14T09:07:42;22.80;61.50
65752;DHT22;52486;51.098;13.770;2024-02-14T09:10:07;22.90;61.80
65752;DHT22;52486;51.098;13.770;2024-02-14T09:12:33;22.80;61.00
65752;DHT22;52486;51.098;13.770;2024-02-14T09:14:59;23.00;61.40
65752;DHT22;52486;51.098;13.770;2024-02-14T09:17:24;22.80;60.60
65752;DHT22;52486;51.098;13.770;2024-02-14T09:19:50;22.60;60.40
65752;DHT22;52486;51.098;13.770;2024-02-14T09:22:16;22.80;61.10
65752;DHT22;52486;51.098;13.770;2024-02-14T09:24:50;22.70;61.20
65752;DHT22;52486;51.098;13.770;2024-02-14T09:27:15;22.80;59.20
65752;DHT22;52486;51.098;13.770;2024-02-14T09:29:41;22.90;61.60
65752;DHT22;52486;51.098;13.770;2024-02-14T09:32:06;22.80;61.60
65752;DHT22;52486;51.098;13.770;2024-02-14T09:34:32;23.20;62.00
65752;DHT22;52486;51.098;13.770;2024-02-14T09:36:58;22.90;61.30
65752;DHT22;52486;51.098;13.770;2024-02-14T09:39:24;23.20;61.70
65752;DHT22;52486;51.098;13.770;2024-02-14T09:41:51;23.30;61.70
65752;DHT22;52486;51.098;13.770;2024-02-14T09:44:20;23.10;61.60
65752;DHT22;52486;51.098;13.770;2024-02-14T09:46:46;23.10;61.40
65752;DHT22;52486;51.098;13.770;2024-02-14T09:49:12;23.10;61.50
65752;DHT22;52486;51.098;13.770;2024-02-14T09:51:39;23.20;62.50
65752;DHT22;52486;51.098;13.770;2024-02-14T09:54:06;23.10;61.70
65752;DHT22;52486;51.098;13.770;2024-02-14T09:56:32;23.40;62.10
65752;DHT22;52486;51.098;13.770;2024-02-14T09:58:58;23.30;62.20
65752;DHT22;52486;51.098;13.770;2024-02-14T10:01:25;23.40;61.90
65752;DHT22;52486;51.098;13.770;2024-02-14T10:03:52;23.30;61.80
65752;DHT22;52486;51.098;13.770;2024-02-14T10:06:18;23.30;61.80
65752;DHT22;52486;51.098;13.770;2024-02-14T10:08:47;23.50;61.90
65752;DHT22;52486;51.098;13.770;2024-02-14T10:11:12;23.60;61.90
65752;DHT22;52486;51.098;13.770;2024-02-14T10:13:40;23.40;61.90
65752;DHT22;52486;51.098;13.770;2024-02-14T10:16:05;23.90;62.20
65752;DHT22;52486;51.098;13.770;2024-02-14T10:18:34;23.50;62.00
65752;DHT22;52486;51.098;13.770;2024-02-14T10:20:59;25.50;63.30
65752;DHT22;52486;51.098;13.770;2024-02-14T10:23:26;23.40;61.50
65752;DHT22;52486;51.098;13.770;2024-02-14T10:25:52;23.80;62.20
65752;DHT22;52486;51.098;13.770;2024-02-14T10:28:18;23.70;62.10
65752;DHT22;52486;51.098;13.770;2024-02-14T10:30:45;23.60;62.10
65752;DHT22;52486;51.098;13.770;2024-02-14T10:33:11;23.60;62.10
65752;DHT22;52486;51.098;13.770;2024-02-14T10:35:36;23.80;61.60
65752;DHT22;52486;51.098;13.770;2024-02-14T10:38:03;23.80;61.80
65752;DHT22;52486;51.098;13.770;2024-02-14T10:40:30;23.70;61.70
65752;DHT22;52486;51.098;13.770;2024-02-14T10:42:56;23.70;61.80
65752;DHT22;52486;51.098;13.770;2024-02-14T10:45:24;23.80;62.00
65752;DHT22;52486;51.098;13.770;2024-02-14T10:47:50;23.80;61.50
65752;DHT22;52486;51.098;13.770;2024-02-14T10:50:16;23.70;62.10
65752;DHT22;52486;51.098;13.770;2024-02-14T10:52:42;24.40;62.20
65752;DHT22;52486;51.098;13.770;2024-02-14T10:55:09;24.00;62.00
65752;DHT22;52486;51.098;13.770;2024-02-14T10:57:36;23.90;62.00
65752;DHT22;52486;51.098;13.770;2024-02-14T11:00:03;23.70;61.60
65752;DHT22;52486;51.098;13.770;2024-02-14T11:02:30;23.80;61.30
65752;DHT22;52486;51.098;13.770;2024-02-14T11:04:56;23.70;61.30
65752;DHT22;52486;51.098;13.770;2024-02-14T11:07:22;23.90;61.40
65752;DHT22;52486;51.098;13.770;2024-02-14T11:10:00;24.00;59.30
65752;DHT22;52486;51.098;13.770;2024-02-14T11:12:32;23.90;61.30
65752;DHT22;52486;51.098;13.770;2024-02-14T11:14:59;23.70;58.70
65752;DHT22;52486;51.098;13.770;2024-02-14T11:17:26;26.30;62.60
65752;DHT22;52486;51.098;13.770;2024-02-14T11:19:53;23.90;61.10
65752;DHT22;52486;51.098;13.770;2024-02-14T11:22:19;25.60;62.30
65752;DHT22;52486;51.098;13.770;2024-02-14T11:24:48;23.70;61.00
65752;DHT22;52486;51.098;13.770;2024-02-14T11:27:14;24.00;60.20
65752;DHT22;52486;51.098;13.770;2024-02-14T11:29:40;23.70;61.30
65752;DHT22;52486;51.098;13.770;2024-02-14T11:32:08;24.50;61.70
65752;DHT22;52486;51.098;13.770;2024-02-14T11:34:34;24.10;60.90
65752;DHT22;52486;51.098;13.770;2024-02-14T11:37:00;24.20;62.00
65752;DHT22;52486;51.098;13.770;2024-02-14T11:39:25;24.20;61.20
65752;DHT22;52486;51.098;13.770;2024-02-14T11:41:51;26.30;63.20
65752;DHT22;52486;51.098;13.770;2024-02-14T11:44:18;23.90;61.30
65752;DHT22;52486;51.098;13.770;2024-02-14T11:46:45;24.20;61.30
65752;DHT22;52486;51.098;13.770;2024-02-14T11:49:11;24.10;61.40
65752;DHT22;52486;51.098;13.770;2024-02-14T11:51:36;24.10;61.20
65752;DHT22;52486;51.098;13.770;2024-02-14T11:54:02;24.30;61.60
65752;DHT22;52486;51.098;13.770;2024-02-14T11:56:36;24.20;61.20
65752;DHT22;52486;51.098;13.770;2024-02-14T11:59:03;24.30;58.80
65752;DHT22;52486;51.098;13.770;2024-02-14T12:01:33;24.40;60.60
65752;DHT22;52486;51.098;13.770;2024-02-14T12:03:59;24.20;58.70
65752;DHT22;52486;51.098;13.770;2024-02-14T12:06:26;24.30;61.00
65752;DHT22;52486;51.098;13.770;2024-02-14T12:08:53;24.40;62.10
65752;DHT22;52486;51.098;13.770;2024-02-14T12:11:19;24.50;61.60
65752;DHT22;52486;51.098;13.770;2024-02-14T12:13:49;24.30;61.50
65752;DHT22;52486;51.098;13.770;2024-02-14T12:16:14;27.00;63.20
65752;DHT22;52486;51.098;13.770;2024-02-14T12:18:41;26.00;63.20
65752;DHT22;52486;51.098;13.770;2024-02-14T12:21:07;24.30;60.80
65752;DHT22;52486;51.098;13.770;2024-02-14T12:23:33;25.90;62.60
65752;DHT22;52486;51.098;13.770;2024-02-14T12:26:01;24.30;61.40
65752;DHT22;52486;51.098;13.770;2024-02-14T12:28:28;24.40;60.70
65752;DHT22;52486;51.098;13.770;2024-02-14T12:30:53;24.30;61.40
65752;DHT22;52486;51.098;13.770;2024-02-14T12:33:22;24.50;60.70
65752;DHT22;52486;51.098;13.770;2024-02-14T12:35:49;24.50;61.20
65752;DHT22;52486;51.098;13.770;2024-02-14T12:38:15;24.30;61.10
65752;DHT22;52486;51.098;13.770;2024-02-14T12:40:42;24.50;61.30
65752;DHT22;52486;51.098;13.770;2024-02-14T12:43:08;24.50;61.00
65752;DHT22;52486;51.098;13.770;2024-02-14T12:45:34;25.30;61.70
65752;DHT22;52486;51.098;13.770;2024-02-14T12:48:00;24.50;61.10
65752;DHT22;52486;51.098;13.770;2024-02-14T12:50:26;25.00;61.40
65752;DHT22;52486;51.098;13.770;2024-02-14T12:52:51;24.60;61.40
65752;DHT22;52486;51.098;13.770;2024-02-14T12:55:17;25.40;61.50
65752;DHT22;52486;51.098;13.770;2024-02-14T12:57:44;24.40;61.30
65752;DHT22;52486;51.098;13.770;2024-02-14T13:00:10;24.20;61.00
65752;DHT22;52486;51.098;13.770;2024-02-14T13:02:35;24.40;60.60
65752;DHT22;52486;51.098;13.770;2024-02-14T13:05:01;24.40;61.30
65752;DHT22;52486;51.098;13.770;2024-02-14T13:07:30;24.60;59.40
65752;DHT22;52486;51.098;13.770;2024-02-14T13:09:56;24.50;61.10
65752;DHT22;52486;51.098;13.770;2024-02-14T13:12:21;24.90;61.10
65752;DHT22;52486;51.098;13.770;2024-02-14T13:14:47;24.30;60.70
65752;DHT22;52486;51.098;13.770;2024-02-14T13:17:12;24.50;61.00
65752;DHT22;52486;51.098;13.770;2024-02-14T13:19:39;24.30;60.60
65752;DHT22;52486;51.098;13.770;2024-02-14T13:22:05;24.60;60.70
65752;DHT22;52486;51.098;13.770;2024-02-14T13:24:30;24.50;60.60
65752;DHT22;52486;51.098;13.770;2024-02-14T13:26:56;24.70;61.00
65752;DHT22;52486;51.098;13.770;2024-02-14T13:29:23;24.70;60.20
65752;DHT22;52486;51.098;13.770;2024-02-14T13:31:50;24.50;60.70
65752;DHT22;52486;51.098;13.770;2024-02-14T13:34:15;24.50;60.80
65752;DHT22;52486;51.098;13.770;2024-02-14T13:36:41;26.70;62.70
65752;DHT22;52486;51.098;13.770;2024-02-14T13:39:06;24.40;61.00
65752;DHT22;52486;51.098;13.770;2024-02-14T13:41:33;24.50;61.00
65752;DHT22;52486;51.098;13.770;2024-02-14T13:43:58;24.40;60.90
65752;DHT22;52486;51.098;13.770;2024-02-14T13:46:24;24.60;61.80
65752;DHT22;52486;51.098;13.770;2024-02-14T13:48:51;24.60;61.20
65752;DHT22;52486;51.098;13.770;2024-02-14T13:51:17;24.70;61.40
65752;DHT22;52486;51.098;13.770;2024-02-14T13:53:42;24.60;61.10
65752;DHT22;52486;51.098;13.770;2024-02-14T13:56:08;24.60;61.00
65752;DHT22;52486;51.098;13.770;2024-02-14T13:58:34;25.00;61.30
65752;DHT22;52486;51.098;13.770;2024-02-14T14:01:00;25.30;61.60
65752;DHT22;52486;51.098;13.770;2024-02-14T14:03:25;24.70;61.20
65752;DHT22;52486;51.098;13.770;2024-02-14T14:05:51;24.50;60.90
65752;DHT22;52486;51.098;13.770;2024-02-14T14:08:18;24.60;60.60
65752;DHT22;52486;51.098;13.770;2024-02-14T14:10:43;24.70;61.30
65752;DHT22;52486;51.098;13.770;2024-02-14T14:13:10;24.60;61.00
65752;DHT22;52486;51.098;13.770;2024-02-14T14:15:35;24.80;61.20
65752;DHT22;52486;51.098;13.770;2024-02-14T14:18:01;26.00;62.00
65752;DHT22;52486;51.098;13.770;2024-02-14T14:20:27;24.40;59.70
65752;DHT22;52486;51.098;13.770;2024-02-14T14:22:52;24.70;60.60
65752;DHT22;52486;51.098;13.770;2024-02-14T14:25:18;24.30;60.30
65752;DHT22;52486;51.098;13.770;2024-02-14T14:27:43;24.70;60.30
65752;DHT22;52486;51.098;13.770;2024-02-14T14:30:09;24.20;60.00
65752;DHT22;52486;51.098;13.770;2024-02-14T14:32:35;24.50;59.40
65752;DHT22;52486;51.098;13.770;2024-02-14T14:35:00;24.40;60.00
65752;DHT22;52486;51.098;13.770;2024-02-14T14:37:26;24.20;60.00
65752;DHT22;52486;51.098;13.770;2024-02-14T14:39:51;24.20;59.90
65752;DHT22;52486;51.098;13.770;2024-02-14T14:42:17;24.30;60.20
65752;DHT22;52486;51.098;13.770;2024-02-14T14:44:43;24.00;59.80
65752;DHT22;52486;51.098;13.770;2024-02-14T14:47:08;26.70;61.80
65752;DHT22;52486;51.098;13.770;2024-02-14T14:49:36;24.30;59.30
65752;DHT22;52486;51.098;13.770;2024-02-14T14:52:03;24.00;59.80
65752;DHT22;52486;51.098;13.770;2024-02-14T14:54:30;24.20;59.70
65752;DHT22;52486;51.098;13.770;2024-02-14T14:56:55;24.20;59.90
65752;DHT22;52486;51.098;13.770;2024-02-14T14:59:21;25.30;60.80
65752;DHT22;52486;51.098;13.770;2024-02-14T15:01:48;24.20;59.40
65752;DHT22;52486;51.098;13.770;2024-02-14T15:04:14;24.30;59.90
65752;DHT22;52486;51.098;13.770;2024-02-14T15:06:40;24.30;60.40